createdAt,value
2019-03-31T00:01:16.620Z,25.17
2019-03-31T00:03:45.798Z,25.60
2019-03-31T00:06:14.961Z,24.83
2019-03-31T00:08:44.274Z,24.20
2019-03-31T00:11:13.673Z,25.50
2019-03-31T00:13:42.806Z,22.93
2019-03-31T00:16:11.997Z,26.20
2019-03-31T00:18:41.177Z,19.03
2019-03-31T00:21:21.969Z,18.67
2019-03-31T00:23:51.091Z,21.73
2019-03-31T00:26:20.271Z,20.70
2019-03-31T00:28:49.497Z,20.10
2019-03-31T00:31:22.342Z,19.80
2019-03-31T00:33:50.741Z,22.20
2019-03-31T00:36:19.871Z,22.83
2019-03-31T00:38:48.996Z,24.57
2019-03-31T00:41:18.104Z,22.20
2019-03-31T00:43:47.340Z,27.30
2019-03-31T00:46:16.466Z,25.93
2019-03-31T00:48:46.714Z,25.10
2019-03-31T00:51:16.657Z,26.03
2019-03-31T00:53:45.738Z,23.70
2019-03-31T00:56:15.027Z,24.23
2019-03-31T00:58:44.194Z,21.43
2019-03-31T01:01:36.679Z,21.13
2019-03-31T01:04:07.069Z,22.97
2019-03-31T01:06:37.296Z,24.43
2019-03-31T01:09:22.482Z,23.77
2019-03-31T01:11:51.941Z,23.27
2019-03-31T01:14:21.613Z,23.93
2019-03-31T01:16:51.334Z,21.10
2019-03-31T01:19:21.582Z,25.50
2019-03-31T01:21:51.721Z,22.13
2019-03-31T01:24:22.772Z,24.70
2019-03-31T01:26:52.211Z,22.60
2019-03-31T01:29:21.753Z,22.73
2019-03-31T01:31:51.656Z,19.43
2019-03-31T01:34:21.315Z,22.00
2019-03-31T01:36:50.878Z,22.73
2019-03-31T01:39:21.547Z,23.13
2019-03-31T01:41:50.660Z,20.33
2019-03-31T01:44:19.921Z,18.20
2019-03-31T01:46:49.106Z,19.13
2019-03-31T01:49:18.382Z,17.90
2019-03-31T01:51:47.766Z,15.27
2019-03-31T01:54:17.004Z,19.30
2019-03-31T01:56:46.329Z,15.00
2019-03-31T01:59:15.783Z,14.40
2019-03-31T02:01:45.055Z,15.13
2019-03-31T02:04:14.157Z,13.73
2019-03-31T02:06:43.263Z,16.73
2019-03-31T02:09:12.439Z,15.93
2019-03-31T02:11:41.497Z,13.70
2019-03-31T02:14:10.481Z,14.93
2019-03-31T02:16:39.622Z,13.27
2019-03-31T02:19:08.689Z,13.30
2019-03-31T02:21:37.872Z,15.43
2019-03-31T02:24:08.220Z,13.77
2019-03-31T02:26:37.218Z,13.50
2019-03-31T02:29:06.408Z,14.20
2019-03-31T02:31:35.549Z,13.43
2019-03-31T02:34:04.948Z,11.67
2019-03-31T02:36:34.170Z,13.03
2019-03-31T02:39:04.735Z,12.27
2019-03-31T02:41:34.062Z,16.17
2019-03-31T02:44:03.410Z,11.97
2019-03-31T02:46:32.911Z,13.63
2019-03-31T02:49:02.050Z,12.93
2019-03-31T02:51:31.480Z,11.50
2019-03-31T02:54:00.749Z,13.30
2019-03-31T02:56:30.495Z,12.27
2019-03-31T02:59:01.605Z,12.27
2019-03-31T03:01:32.144Z,12.73
2019-03-31T03:04:02.773Z,10.57
2019-03-31T03:06:32.307Z,11.33
2019-03-31T03:09:04.496Z,10.73
2019-03-31T03:11:35.687Z,10.63
2019-03-31T03:14:06.185Z,13.73
2019-03-31T03:16:35.713Z,16.40
2019-03-31T03:19:05.077Z,10.60
2019-03-31T03:21:34.236Z,11.00
2019-03-31T03:24:03.381Z,12.03
2019-03-31T03:26:33.773Z,13.13
2019-03-31T03:29:02.887Z,13.33
2019-03-31T03:31:31.967Z,12.37
2019-03-31T03:34:01.088Z,14.47
2019-03-31T03:36:31.585Z,13.07
2019-03-31T03:39:00.906Z,13.87
2019-03-31T03:41:30.254Z,14.63
2019-03-31T03:44:02.313Z,14.93
2019-03-31T03:46:30.230Z,14.20
2019-03-31T03:48:59.673Z,13.13
2019-03-31T03:51:28.747Z,12.97
2019-03-31T03:53:57.900Z,12.40
2019-03-31T03:56:29.024Z,13.80
2019-03-31T03:58:58.018Z,13.77
2019-03-31T04:01:28.758Z,13.00
2019-03-31T04:03:57.999Z,13.00
2019-03-31T04:06:27.421Z,14.10
2019-03-31T04:08:56.826Z,13.47
2019-03-31T04:11:27.380Z,16.50
2019-03-31T04:13:56.981Z,14.90
2019-03-31T04:16:26.576Z,15.00
2019-03-31T04:18:55.970Z,15.93
2019-03-31T04:21:26.800Z,14.70
2019-03-31T04:23:56.548Z,16.07
2019-03-31T04:26:26.931Z,13.87
2019-03-31T04:28:57.245Z,14.53
2019-03-31T04:31:27.347Z,14.30
2019-03-31T04:33:57.701Z,17.63
2019-03-31T04:36:26.905Z,18.43
2019-03-31T04:39:00.165Z,19.50
2019-03-31T04:41:28.061Z,18.97
2019-03-31T04:43:57.239Z,18.70
2019-03-31T04:46:30.336Z,18.33
2019-03-31T04:48:59.279Z,17.77
2019-03-31T04:51:28.540Z,15.77
2019-03-31T04:53:57.638Z,15.87
2019-03-31T04:56:30.570Z,14.97
2019-03-31T04:58:59.797Z,19.53
2019-03-31T05:01:29.021Z,15.47
2019-03-31T05:04:05.018Z,15.00
2019-03-31T05:06:29.730Z,13.73
2019-03-31T05:09:02.334Z,16.13
2019-03-31T05:11:32.688Z,14.93
2019-03-31T05:14:01.952Z,16.23
2019-03-31T05:16:31.078Z,18.40
2019-03-31T05:19:01.298Z,14.47
2019-03-31T05:21:30.285Z,14.47
2019-03-31T05:24:00.636Z,14.73
2019-03-31T05:26:29.826Z,17.20
2019-03-31T05:28:59.897Z,14.17
2019-03-31T05:31:29.084Z,19.97
2019-03-31T05:33:58.449Z,15.83
2019-03-31T05:36:27.943Z,20.40
2019-03-31T05:38:57.329Z,14.80
2019-03-31T05:41:28.224Z,19.03
2019-03-31T05:44:05.444Z,14.27
2019-03-31T05:46:28.977Z,14.00
2019-03-31T05:49:00.222Z,18.77
2019-03-31T05:51:31.622Z,16.97
2019-03-31T05:54:00.889Z,15.00
2019-03-31T05:56:30.298Z,16.00
2019-03-31T05:58:59.477Z,15.43
2019-03-31T06:01:28.726Z,15.27
2019-03-31T06:04:00.246Z,15.17
2019-03-31T06:06:29.471Z,16.07
2019-03-31T06:08:58.633Z,17.40
2019-03-31T06:11:27.967Z,20.27
2019-03-31T06:13:57.277Z,18.25
2019-03-31T06:16:27.601Z,21.87
2019-03-31T06:18:56.988Z,23.17
2019-03-31T06:21:29.070Z,21.33
2019-03-31T06:23:56.993Z,22.62
2019-03-31T06:26:27.272Z,21.60
2019-03-31T06:28:56.732Z,18.90
2019-03-31T06:31:26.018Z,17.93
2019-03-31T06:33:55.031Z,18.03
2019-03-31T06:36:24.429Z,16.70
2019-03-31T06:38:53.404Z,13.30
2019-03-31T06:41:22.495Z,15.47
2019-03-31T06:43:52.730Z,13.80
2019-03-31T06:46:21.741Z,13.10
2019-03-31T06:48:50.853Z,14.20
2019-03-31T06:51:19.981Z,12.80
2019-03-31T06:53:49.203Z,14.50
2019-03-31T06:56:18.352Z,15.03
2019-03-31T06:58:47.608Z,16.63
2019-03-31T07:01:16.773Z,17.10
2019-03-31T07:03:45.896Z,16.03
2019-03-31T07:06:15.144Z,15.87
2019-03-31T07:08:44.358Z,14.23
2019-03-31T07:11:13.608Z,16.53
2019-03-31T07:13:42.944Z,15.37
2019-03-31T07:16:11.987Z,16.83
2019-03-31T07:18:41.216Z,13.50
2019-03-31T07:21:11.021Z,17.00
2019-03-31T07:23:40.776Z,15.80
2019-03-31T07:26:10.032Z,16.90
2019-03-31T07:28:40.276Z,13.43
2019-03-31T07:31:09.518Z,12.77
2019-03-31T07:33:38.766Z,15.17
2019-03-31T07:36:07.804Z,16.47
2019-03-31T07:38:39.321Z,16.77
2019-03-31T07:41:12.956Z,15.40
2019-03-31T07:43:39.523Z,14.43
2019-03-31T07:46:08.525Z,13.17
2019-03-31T07:48:37.555Z,12.63
2019-03-31T07:51:06.552Z,13.13
2019-03-31T07:53:35.574Z,14.30
2019-03-31T07:56:04.821Z,15.93
2019-03-31T07:58:33.966Z,16.53
2019-03-31T08:01:03.206Z,16.30
2019-03-31T08:03:32.409Z,16.80
2019-03-31T08:06:01.468Z,16.03
2019-03-31T08:08:30.470Z,20.83
2019-03-31T08:10:59.549Z,16.73
2019-03-31T08:13:28.866Z,23.03
2019-03-31T08:15:57.890Z,17.10
2019-03-31T08:18:27.008Z,15.70
2019-03-31T08:20:56.314Z,12.53
2019-03-31T08:23:25.482Z,14.87
2019-03-31T08:25:54.811Z,16.23
2019-03-31T08:28:25.145Z,15.73
2019-03-31T08:30:56.116Z,13.77
2019-03-31T08:33:25.308Z,16.80
2019-03-31T08:35:54.653Z,14.37
2019-03-31T08:38:24.573Z,15.80
2019-03-31T08:40:53.833Z,14.03
2019-03-31T08:43:22.813Z,17.13
2019-03-31T08:45:52.023Z,16.87
2019-03-31T08:48:20.999Z,16.37
2019-03-31T08:50:50.179Z,13.37
2019-03-31T08:53:20.280Z,14.20
2019-03-31T08:55:49.389Z,12.43
2019-03-31T08:58:18.692Z,15.03
2019-03-31T09:00:58.405Z,12.80
2019-03-31T09:03:27.684Z,15.80
2019-03-31T09:06:02.164Z,12.87
2019-03-31T09:08:27.923Z,12.30
2019-03-31T09:10:57.162Z,12.73
2019-03-31T09:13:26.215Z,17.13
2019-03-31T09:15:55.550Z,12.93
2019-03-31T09:18:24.747Z,12.93
2019-03-31T09:20:54.043Z,13.50
2019-03-31T09:23:23.161Z,13.73
2019-03-31T09:25:52.651Z,13.60
2019-03-31T09:28:21.899Z,12.50
2019-03-31T09:30:51.131Z,13.13
2019-03-31T09:33:20.374Z,16.17
2019-03-31T09:35:49.492Z,12.17
2019-03-31T09:38:18.793Z,14.97
2019-03-31T09:40:48.052Z,12.27
2019-03-31T09:43:17.201Z,11.20
2019-03-31T09:45:46.298Z,14.37
2019-03-31T09:48:15.361Z,15.27
2019-03-31T09:50:44.580Z,14.57
2019-03-31T09:53:13.808Z,12.13
2019-03-31T09:55:43.014Z,13.13
2019-03-31T09:58:12.290Z,12.50
2019-03-31T10:00:48.522Z,14.93
2019-03-31T10:03:17.738Z,13.00
2019-03-31T10:05:48.099Z,16.80
2019-03-31T10:08:21.360Z,14.67
2019-03-31T10:10:48.625Z,13.57
2019-03-31T10:13:17.609Z,15.23
2019-03-31T10:15:46.748Z,14.67
2019-03-31T10:18:18.132Z,16.60
2019-03-31T10:20:47.078Z,14.90
2019-03-31T10:23:16.206Z,14.83
2019-03-31T10:25:45.561Z,14.60
2019-03-31T10:28:14.672Z,14.50
2019-03-31T10:30:43.749Z,17.33
2019-03-31T10:33:12.972Z,15.07
2019-03-31T10:35:43.053Z,13.33
2019-03-31T10:38:12.283Z,12.77
2019-03-31T10:40:41.562Z,13.13
2019-03-31T10:43:10.877Z,12.53
2019-03-31T10:45:39.924Z,11.43
2019-03-31T10:48:20.452Z,11.23
2019-03-31T10:50:40.220Z,13.78
2019-03-31T10:53:09.641Z,13.20
2019-03-31T10:55:38.950Z,14.78
2019-03-31T10:58:07.994Z,13.37
2019-03-31T11:00:37.503Z,13.65
2019-03-31T11:03:07.463Z,12.43
2019-03-31T11:05:36.874Z,13.20
2019-03-31T11:08:06.640Z,12.03
2019-03-31T11:10:36.443Z,11.83
2019-03-31T11:13:05.817Z,14.63
2019-03-31T11:15:35.267Z,17.03
2019-03-31T11:18:04.533Z,15.00
2019-03-31T11:20:33.802Z,14.47
2019-03-31T11:23:20.179Z,13.27
2019-03-31T11:25:50.492Z,12.43
2019-03-31T11:28:19.713Z,11.67
2019-03-31T11:30:49.077Z,16.73
2019-03-31T11:33:18.102Z,12.70
2019-03-31T11:35:48.180Z,14.47
2019-03-31T11:38:17.282Z,11.77
2019-03-31T11:40:46.585Z,14.10
2019-03-31T11:43:15.592Z,13.33
2019-03-31T11:45:44.661Z,15.23
2019-03-31T11:48:13.939Z,13.28
2019-03-31T11:50:43.113Z,13.83
2019-03-31T11:53:12.531Z,14.15
2019-03-31T11:55:41.714Z,15.63
2019-03-31T11:58:10.866Z,14.18
2019-03-31T12:00:46.036Z,16.30
2019-03-31T12:03:16.187Z,14.07
2019-03-31T12:05:45.241Z,15.20
2019-03-31T12:08:14.322Z,13.50
2019-03-31T12:10:43.553Z,13.13
2019-03-31T12:13:12.875Z,13.17
2019-03-31T12:15:42.025Z,15.93
2019-03-31T12:18:11.077Z,15.60
2019-03-31T12:20:40.162Z,13.57
2019-03-31T12:23:09.382Z,14.33
2019-03-31T12:25:38.730Z,13.18
2019-03-31T12:28:07.867Z,15.50
2019-03-31T12:30:37.007Z,13.35
2019-03-31T12:33:06.213Z,13.23
2019-03-31T12:35:35.547Z,13.22
2019-03-31T12:38:04.686Z,14.47
2019-03-31T12:40:35.077Z,15.93
2019-03-31T12:43:04.464Z,12.40
2019-03-31T12:45:33.773Z,14.43
2019-03-31T12:48:04.345Z,15.63
2019-03-31T12:50:33.660Z,14.90
2019-03-31T12:53:02.922Z,13.40
2019-03-31T12:55:32.347Z,13.57
2019-03-31T12:58:02.458Z,13.97
2019-03-31T13:00:32.714Z,13.78
2019-03-31T13:03:03.284Z,13.87
2019-03-31T13:05:32.479Z,13.65
2019-03-31T13:08:01.792Z,15.43
2019-03-31T13:10:30.966Z,14.20
2019-03-31T13:13:00.392Z,14.70
2019-03-31T13:15:29.542Z,12.57
2019-03-31T13:17:58.830Z,12.58
2019-03-31T13:20:27.953Z,13.33
2019-03-31T13:22:59.388Z,11.60
2019-03-31T13:25:28.780Z,15.07
2019-03-31T13:27:58.133Z,10.80
2019-03-31T13:30:27.402Z,13.07
2019-03-31T13:32:56.714Z,12.53
2019-03-31T13:35:25.995Z,11.80
2019-03-31T13:38:10.015Z,11.27
2019-03-31T13:40:36.884Z,11.07
2019-03-31T13:43:08.403Z,12.30
2019-03-31T13:45:44.168Z,10.97
2019-03-31T13:48:15.374Z,14.58
2019-03-31T13:50:44.590Z,12.17
2019-03-31T13:53:16.239Z,11.03
2019-03-31T13:55:44.600Z,12.70
2019-03-31T13:58:15.143Z,12.27
2019-03-31T14:00:44.807Z,11.43
2019-03-31T14:03:14.134Z,14.03
2019-03-31T14:05:43.448Z,15.33
2019-03-31T14:08:25.064Z,11.20
2019-03-31T14:10:43.950Z,11.43
2019-03-31T14:13:12.942Z,10.90
2019-03-31T14:15:41.903Z,12.03
2019-03-31T14:18:11.018Z,13.53
2019-03-31T14:20:39.980Z,12.33
2019-03-31T14:23:09.069Z,10.90
2019-03-31T14:25:38.142Z,11.77
2019-03-31T14:28:07.148Z,19.40
2019-03-31T14:30:36.652Z,15.10
2019-03-31T14:33:05.913Z,19.07
2019-03-31T14:35:37.958Z,17.30
2019-03-31T14:38:07.063Z,13.97
2019-03-31T14:40:36.012Z,14.53
2019-03-31T14:43:05.430Z,14.57
2019-03-31T14:45:35.695Z,16.73
2019-03-31T14:48:05.207Z,13.87
2019-03-31T14:50:38.770Z,14.10
2019-03-31T14:53:08.539Z,16.63
2019-03-31T14:55:37.909Z,14.77
2019-03-31T14:58:08.280Z,13.63
2019-03-31T15:00:37.843Z,16.97
2019-03-31T15:03:07.161Z,17.27
2019-03-31T15:05:36.253Z,15.43
2019-03-31T15:08:05.543Z,15.70
2019-03-31T15:10:34.761Z,16.90
2019-03-31T15:13:04.078Z,12.80
2019-03-31T15:15:34.187Z,14.77
2019-03-31T15:18:03.526Z,16.50
2019-03-31T15:20:32.580Z,16.93
2019-03-31T15:23:01.674Z,14.87
2019-03-31T15:25:30.823Z,13.97
2019-03-31T15:27:59.893Z,13.90
2019-03-31T15:30:29.002Z,16.47
2019-03-31T15:32:58.289Z,14.23
2019-03-31T15:35:27.489Z,20.27
2019-03-31T15:37:56.626Z,15.68
2019-03-31T15:40:25.856Z,16.73
2019-03-31T15:42:55.185Z,16.80
2019-03-31T15:45:24.499Z,17.03
2019-03-31T15:47:53.670Z,16.50
2019-03-31T15:50:24.029Z,19.70
2019-03-31T15:52:53.434Z,14.07
2019-03-31T15:55:23.135Z,14.83
2019-03-31T15:57:52.318Z,15.60
2019-03-31T16:00:24.055Z,19.37
2019-03-31T16:02:53.365Z,15.63
2019-03-31T16:05:22.603Z,17.23
2019-03-31T16:07:51.220Z,16.12
2019-03-31T16:10:19.904Z,16.20
2019-03-31T16:12:48.797Z,15.00
2019-03-31T16:15:17.498Z,16.73
2019-03-31T16:17:46.077Z,17.97
2019-03-31T16:20:15.419Z,18.90
2019-03-31T16:22:44.052Z,16.17
2019-03-31T16:25:21.506Z,16.17
2019-03-31T16:27:50.693Z,15.17
2019-03-31T16:30:19.524Z,19.50
2019-03-31T16:32:48.247Z,14.97
2019-03-31T16:35:16.928Z,18.23
2019-03-31T16:37:45.648Z,16.70
2019-03-31T16:40:15.360Z,17.53
2019-03-31T16:42:44.104Z,16.97
2019-03-31T16:45:12.939Z,21.67
2019-03-31T16:47:41.692Z,18.73
2019-03-31T16:50:10.496Z,18.43
2019-03-31T16:52:38.945Z,21.60
2019-03-31T16:55:08.329Z,17.00
2019-03-31T16:57:37.101Z,18.43
2019-03-31T17:00:06.503Z,20.03
2019-03-31T17:02:36.458Z,19.90
2019-03-31T17:05:05.498Z,23.07
2019-03-31T17:07:33.987Z,23.77
2019-03-31T17:10:02.786Z,21.07
2019-03-31T17:12:31.679Z,20.33
2019-03-31T17:15:00.410Z,20.77
2019-03-31T17:17:29.171Z,24.03
2019-03-31T17:19:57.906Z,19.13
2019-03-31T17:22:26.453Z,22.77
2019-03-31T17:24:55.250Z,21.47
2019-03-31T17:27:24.258Z,18.17
2019-03-31T17:29:52.844Z,18.17
2019-03-31T17:32:21.525Z,16.10
2019-03-31T17:34:50.211Z,18.07
2019-03-31T17:37:18.756Z,16.20
2019-03-31T17:39:47.393Z,15.90
2019-03-31T17:42:16.993Z,14.53
2019-03-31T17:44:45.502Z,24.47
2019-03-31T17:47:14.099Z,21.37
2019-03-31T17:49:42.817Z,17.47
2019-03-31T17:52:11.476Z,16.03
2019-03-31T17:54:39.959Z,22.17
2019-03-31T17:57:08.551Z,20.10
2019-03-31T17:59:37.007Z,22.37
2019-03-31T18:02:05.782Z,20.00
2019-03-31T18:04:34.270Z,38.50
2019-03-31T18:07:03.310Z,29.70
2019-03-31T18:09:31.790Z,22.10
2019-03-31T18:12:00.599Z,22.93
2019-03-31T18:14:29.277Z,23.07
2019-03-31T18:16:57.922Z,19.90
2019-03-31T18:19:26.594Z,23.67
2019-03-31T18:21:55.046Z,26.73
2019-03-31T18:24:23.592Z,36.87
2019-03-31T18:26:53.190Z,30.23
2019-03-31T18:29:21.743Z,37.10
2019-03-31T18:31:50.546Z,29.80
2019-03-31T18:34:19.259Z,34.73
2019-03-31T18:36:47.931Z,31.13
2019-03-31T18:39:16.768Z,30.43
2019-03-31T18:41:45.290Z,28.50
2019-03-31T18:44:14.838Z,32.10
2019-03-31T18:46:43.373Z,29.80
2019-03-31T18:49:12.173Z,27.77
2019-03-31T18:51:40.714Z,30.23
2019-03-31T18:54:27.175Z,32.80
2019-03-31T18:57:23.881Z,32.97
2019-03-31T19:00:11.992Z,35.57
2019-03-31T19:03:02.872Z,35.73
2019-03-31T19:06:09.134Z,37.90
2019-03-31T19:09:05.759Z,36.37
2019-03-31T19:11:54.107Z,41.00
2019-03-31T19:14:40.593Z,37.87
2019-03-31T19:17:35.642Z,40.50
2019-03-31T19:20:22.505Z,53.47
2019-03-31T19:23:29.584Z,65.07
2019-03-31T19:26:20.227Z,69.57
2019-03-31T19:29:06.787Z,63.40
2019-03-31T19:31:57.833Z,70.70
2019-03-31T19:34:51.712Z,76.83
2019-03-31T19:37:45.221Z,66.83
2019-03-31T19:41:03.395Z,40.80
2019-03-31T19:43:44.123Z,33.67
2019-03-31T19:46:28.627Z,35.53
2019-03-31T19:49:11.726Z,26.93
2019-03-31T19:51:54.238Z,31.93
2019-03-31T19:54:50.774Z,36.43
2019-03-31T19:57:50.849Z,30.33
2019-03-31T20:00:48.279Z,28.50
2019-03-31T20:03:34.027Z,32.17
2019-03-31T20:06:24.821Z,31.40
2019-03-31T20:09:01.418Z,28.97
2019-03-31T20:11:53.399Z,32.13
2019-03-31T20:14:50.720Z,32.17
2019-03-31T20:17:24.742Z,32.90
2019-03-31T20:20:13.491Z,32.40
2019-03-31T20:23:00.816Z,36.03
2019-03-31T20:25:52.877Z,32.93
2019-03-31T20:28:28.002Z,34.17
2019-03-31T20:31:15.184Z,30.97
2019-03-31T20:33:59.442Z,30.23
2019-03-31T20:36:38.168Z,29.77
2019-03-31T20:39:23.716Z,30.27
2019-03-31T20:41:57.743Z,30.83
2019-03-31T20:44:26.285Z,35.50
2019-03-31T20:46:55.916Z,39.27
2019-03-31T20:49:25.375Z,51.40
2019-03-31T20:51:53.997Z,43.33
2019-03-31T20:54:22.717Z,42.83
2019-03-31T20:56:51.466Z,35.27
2019-03-31T20:59:20.046Z,32.43
2019-03-31T21:01:48.770Z,32.07
2019-03-31T21:04:17.489Z,32.57
2019-03-31T21:06:45.967Z,32.10
2019-03-31T21:09:14.595Z,32.30
2019-03-31T21:11:43.131Z,32.77
2019-03-31T21:14:11.728Z,30.67
2019-03-31T21:16:40.271Z,31.33
2019-03-31T21:19:08.963Z,29.20
2019-03-31T21:21:37.528Z,30.40
2019-03-31T21:24:06.210Z,30.23
2019-03-31T21:26:35.178Z,28.13
2019-03-31T21:29:04.952Z,30.60
2019-03-31T21:31:33.675Z,26.47
2019-03-31T21:34:02.185Z,25.97
2019-03-31T21:36:30.709Z,27.17
2019-03-31T21:38:59.380Z,27.80
2019-03-31T21:41:28.006Z,29.53
2019-03-31T21:43:56.593Z,32.83
2019-03-31T21:46:25.321Z,24.77
2019-03-31T21:48:53.974Z,29.70
2019-03-31T21:51:22.800Z,27.73
2019-03-31T21:53:51.599Z,29.53
2019-03-31T21:56:20.304Z,26.23
2019-03-31T21:58:48.951Z,28.47
2019-03-31T22:01:17.919Z,24.87
2019-03-31T22:03:46.575Z,26.27
2019-03-31T22:06:15.062Z,25.30
2019-03-31T22:08:43.827Z,27.53
2019-03-31T22:11:12.624Z,20.93
2019-03-31T22:13:41.183Z,20.10
2019-03-31T22:16:09.822Z,21.27
2019-03-31T22:18:38.546Z,19.87
2019-03-31T22:21:07.134Z,21.27
2019-03-31T22:23:35.827Z,21.23
2019-03-31T22:26:04.590Z,22.40
2019-03-31T22:28:33.214Z,19.57
2019-03-31T22:31:02.150Z,22.33
2019-03-31T22:33:30.795Z,20.00
2019-03-31T22:36:17.474Z,17.50
2019-03-31T22:38:46.029Z,20.30
2019-03-31T22:41:14.478Z,19.40
2019-03-31T22:43:43.318Z,17.43
2019-03-31T22:46:12.076Z,16.40
2019-03-31T22:48:40.809Z,15.37
2019-03-31T22:51:09.353Z,16.70
2019-03-31T22:53:38.048Z,15.93
2019-03-31T22:56:06.819Z,13.00
2019-03-31T22:58:35.400Z,15.87
2019-03-31T23:01:04.436Z,16.27
2019-03-31T23:03:33.247Z,17.50
2019-03-31T23:06:01.959Z,17.70
2019-03-31T23:08:31.706Z,17.93
2019-03-31T23:11:00.124Z,17.50
2019-03-31T23:13:28.808Z,17.90
2019-03-31T23:15:57.554Z,15.60
2019-03-31T23:18:26.252Z,16.07
2019-03-31T23:20:55.057Z,17.60
2019-03-31T23:23:23.845Z,16.23
2019-03-31T23:25:52.726Z,15.63
2019-03-31T23:28:21.310Z,12.13
2019-03-31T23:30:49.921Z,14.90
2019-03-31T23:33:19.878Z,13.30
2019-03-31T23:35:48.490Z,11.43
2019-03-31T23:38:17.218Z,16.97
2019-03-31T23:40:45.719Z,12.20
2019-03-31T23:43:14.299Z,12.03
2019-03-31T23:45:42.913Z,14.00
2019-03-31T23:48:11.649Z,12.87
2019-03-31T23:50:41.186Z,14.90
2019-03-31T23:53:09.917Z,13.40
2019-03-31T23:55:38.471Z,13.70
2019-03-31T23:58:07.254Z,12.43
